createdAt,value
2023-05-14T00:00:41.410Z,14.18
2023-05-14T00:03:05.392Z,14.48
2023-05-14T00:05:28.861Z,14.25
2023-05-14T00:07:53.472Z,14.10
2023-05-14T00:10:17.633Z,13.75
2023-05-14T00:12:40.915Z,14.75
2023-05-14T00:15:04.303Z,14.55
2023-05-14T00:17:27.679Z,15.73
2023-05-14T00:19:51.225Z,15.95
2023-05-14T00:22:14.535Z,18.30
2023-05-14T00:24:39.140Z,16.80
2023-05-14T00:27:02.613Z,13.80
2023-05-14T00:29:26.006Z,13.27
2023-05-14T00:31:49.436Z,13.85
2023-05-14T00:34:12.745Z,13.88
2023-05-14T00:36:36.077Z,14.13
2023-05-14T00:38:59.401Z,13.45
2023-05-14T00:41:24.235Z,15.15
2023-05-14T00:43:47.593Z,17.65
2023-05-14T00:46:12.401Z,17.15
2023-05-14T00:48:35.768Z,14.68
2023-05-14T00:50:59.274Z,12.13
2023-05-14T00:53:23.788Z,14.55
2023-05-14T00:55:48.139Z,15.55
2023-05-14T00:58:14.829Z,15.23
2023-05-14T01:00:38.651Z,17.52
2023-05-14T01:03:03.130Z,16.20
2023-05-14T01:05:31.021Z,14.60
2023-05-14T01:08:05.311Z,18.35
2023-05-14T01:10:35.605Z,19.30
2023-05-14T01:13:21.194Z,18.13
2023-05-14T01:15:47.770Z,17.23
2023-05-14T01:18:12.657Z,15.95
2023-05-14T01:20:36.499Z,18.05
2023-05-14T01:23:01.298Z,18.35
2023-05-14T01:25:24.682Z,18.42
2023-05-14T01:27:56.336Z,17.20
2023-05-14T01:30:25.333Z,19.33
2023-05-14T01:32:53.155Z,23.20
2023-05-14T01:35:16.755Z,17.70
2023-05-14T01:37:41.280Z,19.58
2023-05-14T01:40:11.322Z,19.77
2023-05-14T01:42:34.766Z,21.75
2023-05-14T01:44:58.615Z,19.23
2023-05-14T01:47:21.924Z,17.92
2023-05-14T01:49:45.359Z,19.50
2023-05-14T01:52:09.484Z,28.40
2023-05-14T01:54:32.756Z,23.27
2023-05-14T01:56:57.365Z,19.70
2023-05-14T01:59:20.647Z,18.98
2023-05-14T02:01:43.953Z,19.13
2023-05-14T02:04:07.374Z,17.35
2023-05-14T02:06:34.944Z,22.63
2023-05-14T02:08:58.781Z,18.35
2023-05-14T02:11:22.129Z,18.13
2023-05-14T02:13:46.826Z,18.88
2023-05-14T02:16:10.751Z,20.60
2023-05-14T02:18:34.178Z,19.60
2023-05-14T02:20:57.838Z,16.77
2023-05-14T02:23:28.063Z,19.00
2023-05-14T02:25:57.624Z,17.58
2023-05-14T02:28:20.856Z,19.48
2023-05-14T02:30:45.725Z,18.58
2023-05-14T02:33:09.080Z,17.90
2023-05-14T02:35:32.579Z,24.27
2023-05-14T02:37:56.259Z,21.27
2023-05-14T02:40:19.575Z,18.52
2023-05-14T02:42:43.028Z,19.55
2023-05-14T02:45:08.015Z,20.63
2023-05-14T02:47:33.044Z,22.85
2023-05-14T02:49:56.292Z,21.90
2023-05-14T02:52:19.764Z,26.23
2023-05-14T02:54:43.075Z,29.00
2023-05-14T02:57:06.945Z,24.10
2023-05-14T02:59:31.497Z,25.83
2023-05-14T03:01:55.426Z,25.13
2023-05-14T03:04:20.675Z,28.73
2023-05-14T03:06:43.963Z,25.73
2023-05-14T03:09:07.859Z,22.92
2023-05-14T03:11:31.337Z,25.75
2023-05-14T03:13:54.646Z,30.90
2023-05-14T03:16:17.940Z,27.15
2023-05-14T03:18:41.487Z,25.00
2023-05-14T03:21:08.951Z,24.35
2023-05-14T03:23:34.910Z,27.83
2023-05-14T03:25:58.138Z,24.92
2023-05-14T03:28:21.475Z,25.30
2023-05-14T03:30:44.830Z,27.05
2023-05-14T03:33:08.183Z,26.52
2023-05-14T03:35:31.499Z,22.33
2023-05-14T03:38:00.849Z,23.63
2023-05-14T03:40:24.394Z,26.25
2023-05-14T03:42:48.143Z,22.25
2023-05-14T03:45:12.914Z,24.25
2023-05-14T03:47:36.201Z,23.10
2023-05-14T03:49:59.791Z,23.55
2023-05-14T03:52:23.009Z,21.15
2023-05-14T03:54:47.673Z,22.98
2023-05-14T03:57:12.027Z,22.48
2023-05-14T03:59:35.442Z,24.63
2023-05-14T04:01:58.815Z,22.90
2023-05-14T04:04:22.738Z,23.65
2023-05-14T04:06:46.101Z,22.63
2023-05-14T04:09:10.882Z,21.95
2023-05-14T04:11:35.672Z,23.20
2023-05-14T04:13:58.955Z,22.55
2023-05-14T04:16:22.339Z,24.40
2023-05-14T04:18:46.070Z,23.10
2023-05-14T04:21:09.364Z,21.48
2023-05-14T04:23:32.785Z,22.13
2023-05-14T04:25:56.187Z,20.95
2023-05-14T04:28:21.089Z,20.27
2023-05-14T04:30:45.667Z,19.95
2023-05-14T04:33:09.085Z,20.27
2023-05-14T04:35:32.391Z,25.95
2023-05-14T04:37:55.726Z,21.05
2023-05-14T04:40:19.283Z,20.55
2023-05-14T04:42:42.468Z,21.58
2023-05-14T04:45:08.825Z,20.55
2023-05-14T04:47:32.088Z,20.65
2023-05-14T04:49:55.497Z,20.30
2023-05-14T04:52:18.800Z,22.25
2023-05-14T04:54:42.165Z,21.90
2023-05-14T04:57:06.598Z,21.85
2023-05-14T04:59:29.985Z,25.92
2023-05-14T05:01:54.714Z,21.02
2023-05-14T05:04:18.168Z,25.92
2023-05-14T05:06:41.687Z,25.55
2023-05-14T05:09:05.494Z,23.48
2023-05-14T05:11:28.737Z,25.30
2023-05-14T05:13:52.373Z,23.15
2023-05-14T05:16:15.931Z,20.30
2023-05-14T05:18:40.819Z,23.35
2023-05-14T05:21:04.315Z,22.67
2023-05-14T05:23:28.677Z,22.70
2023-05-14T05:25:52.175Z,22.42
2023-05-14T05:28:16.129Z,24.50
2023-05-14T05:30:39.422Z,23.45
2023-05-14T05:33:02.777Z,26.25
2023-05-14T05:35:27.459Z,27.05
2023-05-14T05:37:50.985Z,27.35
2023-05-14T05:40:15.721Z,26.35
2023-05-14T05:42:39.029Z,27.77
2023-05-14T05:45:02.343Z,26.55
2023-05-14T05:47:25.780Z,27.85
2023-05-14T05:49:49.045Z,26.60
2023-05-14T05:52:13.995Z,27.05
2023-05-14T05:54:39.748Z,26.00
2023-05-14T05:57:03.009Z,25.98
2023-05-14T05:59:26.698Z,24.38
2023-05-14T06:01:50.017Z,28.42
2023-05-14T06:04:13.304Z,25.58
2023-05-14T06:06:36.729Z,26.67
2023-05-14T06:09:02.039Z,24.35
2023-05-14T06:11:25.930Z,26.73
2023-05-14T06:13:49.207Z,25.45
2023-05-14T06:16:12.582Z,27.30
2023-05-14T06:18:36.053Z,25.38
2023-05-14T06:21:00.164Z,24.42
2023-05-14T06:23:23.660Z,24.55
2023-05-14T06:25:50.607Z,25.13
2023-05-14T06:28:14.045Z,22.90
2023-05-14T06:30:37.374Z,21.88
2023-05-14T06:33:00.694Z,22.58
2023-05-14T06:35:25.649Z,21.20
2023-05-14T06:37:48.889Z,23.60
2023-05-14T06:40:15.627Z,25.40
2023-05-14T06:42:40.278Z,24.95
2023-05-14T06:45:03.878Z,22.08
2023-05-14T06:47:27.285Z,25.73
2023-05-14T06:49:50.672Z,22.38
2023-05-14T06:52:13.971Z,27.35
2023-05-14T06:54:37.221Z,22.77
2023-05-14T06:57:00.518Z,24.60
2023-05-14T06:59:25.322Z,23.98
2023-05-14T07:01:49.053Z,26.58
2023-05-14T07:04:12.538Z,25.05
2023-05-14T07:06:36.032Z,25.27
2023-05-14T07:08:59.329Z,22.52
2023-05-14T07:11:23.153Z,27.65
2023-05-14T07:13:46.525Z,22.80
2023-05-14T07:16:11.375Z,22.42
2023-05-14T07:18:34.845Z,25.73
2023-05-14T07:20:58.219Z,24.10
2023-05-14T07:23:21.611Z,22.30
2023-05-14T07:25:45.062Z,24.60
2023-05-14T07:28:08.305Z,22.20
2023-05-14T07:30:31.855Z,23.80
2023-05-14T07:32:56.644Z,23.33
2023-05-14T07:35:19.951Z,21.50
2023-05-14T07:37:43.885Z,21.20
2023-05-14T07:40:08.859Z,22.02
2023-05-14T07:42:36.787Z,23.27
2023-05-14T07:45:00.750Z,26.65
2023-05-14T07:47:24.211Z,25.83
2023-05-14T07:49:48.926Z,20.08
2023-05-14T07:52:12.344Z,19.92
2023-05-14T07:54:35.779Z,24.77
2023-05-14T07:56:59.050Z,24.30
2023-05-14T07:59:22.547Z,20.23
2023-05-14T08:01:46.044Z,22.05
2023-05-14T08:04:11.647Z,22.10
2023-05-14T08:06:37.201Z,21.52
2023-05-14T08:09:00.740Z,22.45
2023-05-14T08:11:24.014Z,20.05
2023-05-14T08:13:47.279Z,23.75
2023-05-14T08:16:10.634Z,32.40
2023-05-14T08:18:33.952Z,33.97
2023-05-14T08:20:57.212Z,35.83
2023-05-14T08:23:22.500Z,30.60
2023-05-14T08:25:45.774Z,28.10
2023-05-14T08:28:09.425Z,28.88
2023-05-14T08:30:32.768Z,28.63
2023-05-14T08:32:56.116Z,28.02
2023-05-14T08:35:20.160Z,36.50
2023-05-14T08:37:43.429Z,36.50
2023-05-14T08:40:10.798Z,36.15
2023-05-14T08:42:34.511Z,35.00
2023-05-14T08:45:02.625Z,38.65
2023-05-14T08:47:26.746Z,35.25
2023-05-14T08:49:58.067Z,32.53
2023-05-14T08:52:23.551Z,33.38
2023-05-14T08:54:49.291Z,36.58
2023-05-14T08:57:14.422Z,31.88
2023-05-14T08:59:37.918Z,32.63
2023-05-14T09:02:04.989Z,35.67
2023-05-14T09:04:29.721Z,34.22
2023-05-14T09:06:54.814Z,31.40
2023-05-14T09:09:18.580Z,29.25
2023-05-14T09:11:47.099Z,37.00
2023-05-14T09:14:11.839Z,36.15
2023-05-14T09:16:36.981Z,27.00
2023-05-14T09:19:00.398Z,20.88
2023-05-14T09:21:24.119Z,19.75
2023-05-14T09:23:49.711Z,22.63
2023-05-14T09:26:13.592Z,14.15
2023-05-14T09:28:37.052Z,16.73
2023-05-14T09:31:03.581Z,15.88
2023-05-14T09:33:31.077Z,22.45
2023-05-14T09:35:59.854Z,17.27
2023-05-14T09:38:29.568Z,12.13
2023-05-14T09:40:53.183Z,21.73
2023-05-14T09:43:16.907Z,12.10
2023-05-14T09:45:41.877Z,14.57
2023-05-14T09:48:07.479Z,14.73
2023-05-14T09:50:31.220Z,12.65
2023-05-14T09:52:56.620Z,12.55
2023-05-14T09:55:21.489Z,12.25
2023-05-14T09:57:45.110Z,14.70
2023-05-14T10:00:10.453Z,12.93
2023-05-14T10:02:38.917Z,15.63
2023-05-14T10:05:06.227Z,10.38
2023-05-14T10:07:38.124Z,16.02
2023-05-14T10:10:06.345Z,12.75
2023-05-14T10:12:34.605Z,11.45
2023-05-14T10:15:00.574Z,17.25
2023-05-14T10:17:26.409Z,9.05
2023-05-14T10:19:55.591Z,7.63
2023-05-14T10:22:24.358Z,5.80
2023-05-14T10:24:48.311Z,7.72
2023-05-14T10:27:11.859Z,12.20
2023-05-14T10:29:37.306Z,8.15
2023-05-14T10:32:05.285Z,10.15
2023-05-14T10:34:41.072Z,15.00
2023-05-14T10:37:06.329Z,14.10
2023-05-14T10:39:44.879Z,7.22
2023-05-14T10:42:09.757Z,8.55
2023-05-14T10:44:36.545Z,10.63
2023-05-14T10:47:00.806Z,10.27
2023-05-14T10:49:39.833Z,8.15
2023-05-14T10:52:09.717Z,13.68
2023-05-14T10:54:36.994Z,11.35
2023-05-14T10:57:02.274Z,8.43
2023-05-14T10:59:29.083Z,7.68
2023-05-14T11:01:52.509Z,10.48
2023-05-14T11:04:20.248Z,13.98
2023-05-14T11:06:44.397Z,12.55
2023-05-14T11:09:08.413Z,13.32
2023-05-14T11:11:31.791Z,13.60
2023-05-14T11:13:57.506Z,16.45
2023-05-14T11:16:24.383Z,10.73
2023-05-14T11:18:47.885Z,10.25
2023-05-14T11:21:11.363Z,12.73
2023-05-14T11:23:34.629Z,8.80
2023-05-14T11:25:58.395Z,8.13
2023-05-14T11:28:22.877Z,9.15
2023-05-14T11:30:47.655Z,6.22
2023-05-14T11:33:10.960Z,6.75
2023-05-14T11:35:34.379Z,4.47
2023-05-14T11:37:57.760Z,7.43
2023-05-14T11:40:21.657Z,5.72
2023-05-14T11:42:45.166Z,4.35
2023-05-14T11:45:12.317Z,5.55
2023-05-14T11:47:36.993Z,6.28
2023-05-14T11:50:01.842Z,3.45
2023-05-14T11:52:25.208Z,4.07
2023-05-14T11:54:49.662Z,6.10
2023-05-14T11:57:15.411Z,5.32
2023-05-14T11:59:39.324Z,8.93
2023-05-14T12:02:03.813Z,6.20
2023-05-14T12:04:30.194Z,6.22
2023-05-14T12:06:54.863Z,4.35
2023-05-14T12:09:19.118Z,3.95
2023-05-14T12:11:42.376Z,5.47
2023-05-14T12:14:15.698Z,5.18
2023-05-14T12:16:42.578Z,4.78
2023-05-14T12:19:06.083Z,4.18
2023-05-14T12:21:31.495Z,3.92
2023-05-14T12:23:59.797Z,3.33
2023-05-14T12:26:23.610Z,4.18
2023-05-14T12:28:49.288Z,6.18
2023-05-14T12:31:12.790Z,3.50
2023-05-14T12:33:36.288Z,5.60
2023-05-14T12:36:09.934Z,8.32
2023-05-14T12:38:40.900Z,5.40
2023-05-14T12:41:04.522Z,7.93
2023-05-14T12:43:31.474Z,4.70
2023-05-14T12:45:55.342Z,5.25
2023-05-14T12:48:18.610Z,6.20
2023-05-14T12:50:41.865Z,5.90
2023-05-14T12:53:05.533Z,8.75
2023-05-14T12:55:30.199Z,5.25
2023-05-14T12:57:53.526Z,6.50
2023-05-14T13:00:17.659Z,3.90
2023-05-14T13:02:43.034Z,3.10
2023-05-14T13:05:07.357Z,4.70
2023-05-14T13:07:31.524Z,4.47
2023-05-14T13:09:55.248Z,4.65
2023-05-14T13:12:19.917Z,6.05
2023-05-14T13:14:43.192Z,7.15
2023-05-14T13:17:08.017Z,8.25
2023-05-14T13:19:31.407Z,6.00
2023-05-14T13:21:54.702Z,7.55
2023-05-14T13:24:18.041Z,3.65
2023-05-14T13:26:41.315Z,6.78
2023-05-14T13:29:06.821Z,7.55
2023-05-14T13:31:30.284Z,6.57
2023-05-14T13:33:53.621Z,8.55
2023-05-14T13:36:17.016Z,7.97
2023-05-14T13:38:40.510Z,6.60
2023-05-14T13:41:04.095Z,5.53
2023-05-14T13:43:27.402Z,5.90
2023-05-14T13:45:52.371Z,4.55
2023-05-14T13:48:16.025Z,7.47
2023-05-14T13:50:39.477Z,5.55
2023-05-14T13:53:02.881Z,5.32
2023-05-14T13:55:26.402Z,6.82
2023-05-14T13:57:49.876Z,4.22
2023-05-14T14:00:15.690Z,4.32
2023-05-14T14:02:40.347Z,5.32
2023-05-14T14:05:04.013Z,5.18
2023-05-14T14:07:27.468Z,5.43
2023-05-14T14:09:50.768Z,6.32
2023-05-14T14:12:14.166Z,4.75
2023-05-14T14:14:37.542Z,5.03
2023-05-14T14:17:01.223Z,6.15
2023-05-14T14:19:25.986Z,6.57
2023-05-14T14:24:17.689Z,5.30
2023-05-14T14:26:41.354Z,4.50
2023-05-14T14:29:04.949Z,6.25
2023-05-14T14:31:28.700Z,5.25
2023-05-14T14:33:52.209Z,6.55
2023-05-14T14:36:16.912Z,4.95
2023-05-14T14:38:40.291Z,4.80
2023-05-14T14:41:03.986Z,4.43
2023-05-14T14:43:27.515Z,5.38
2023-05-14T14:45:51.101Z,2.33
2023-05-14T14:48:26.643Z,3.88
2023-05-14T14:50:50.095Z,3.42
2023-05-14T14:53:14.851Z,5.70
2023-05-14T14:55:38.313Z,4.72
2023-05-14T14:58:01.677Z,3.38
2023-05-14T15:00:25.239Z,3.47
2023-05-14T15:02:48.715Z,4.38
2023-05-14T15:05:12.168Z,5.68
2023-05-14T15:07:35.449Z,5.43
2023-05-14T15:10:00.236Z,4.03
2023-05-14T15:12:23.658Z,4.85
2023-05-14T15:14:46.923Z,6.63
2023-05-14T15:17:10.518Z,5.93
2023-05-14T15:19:34.059Z,6.38
2023-05-14T15:21:57.804Z,4.13
2023-05-14T15:24:21.090Z,6.68
2023-05-14T15:26:45.897Z,8.00
2023-05-14T15:29:09.150Z,5.28
2023-05-14T15:31:32.922Z,3.60
2023-05-14T15:33:56.619Z,5.25
2023-05-14T15:36:19.949Z,7.18
2023-05-14T15:38:43.284Z,6.63
2023-05-14T15:41:07.589Z,4.68
2023-05-14T15:43:32.239Z,6.25
2023-05-14T15:45:55.965Z,5.95
2023-05-14T15:48:19.413Z,5.60
2023-05-14T15:50:43.432Z,3.30
2023-05-14T15:53:06.892Z,5.28
2023-05-14T15:55:30.462Z,4.18
2023-05-14T15:57:53.802Z,7.63
2023-05-14T16:00:19.748Z,4.80
2023-05-14T16:02:43.337Z,3.90
2023-05-14T16:05:08.569Z,7.90
2023-05-14T16:07:32.191Z,4.10
2023-05-14T16:09:55.573Z,5.05
2023-05-14T16:12:19.009Z,3.85
2023-05-14T16:14:42.454Z,3.50
2023-05-14T16:17:07.394Z,3.72
2023-05-14T16:19:30.802Z,5.10
2023-05-14T16:21:54.169Z,5.75
2023-05-14T16:24:19.548Z,5.22
2023-05-14T16:26:42.919Z,7.82
2023-05-14T16:29:06.658Z,5.55
2023-05-14T16:31:31.487Z,7.22
2023-05-14T16:33:56.137Z,4.65
2023-05-14T16:36:19.589Z,4.97
2023-05-14T16:39:05.383Z,5.57
2023-05-14T16:41:26.362Z,5.95
2023-05-14T16:43:51.153Z,6.75
2023-05-14T16:46:14.871Z,4.50
2023-05-14T16:48:38.226Z,7.82
2023-05-14T16:51:03.091Z,4.57
2023-05-14T16:53:26.498Z,5.78
2023-05-14T16:55:49.801Z,6.43
2023-05-14T16:58:13.069Z,5.28
2023-05-14T17:00:36.411Z,4.80
2023-05-14T17:02:59.966Z,4.97
2023-05-14T17:05:23.526Z,5.07
2023-05-14T17:07:48.517Z,4.20
2023-05-14T17:10:12.145Z,6.43
2023-05-14T17:12:35.536Z,4.38
2023-05-14T17:14:58.878Z,5.35
2023-05-14T17:17:22.237Z,5.95
2023-05-14T17:19:46.153Z,4.70
2023-05-14T17:22:09.590Z,7.38
2023-05-14T17:24:35.064Z,9.95
2023-05-14T17:26:58.367Z,8.02
2023-05-14T17:29:21.595Z,5.53
2023-05-14T17:31:44.912Z,4.53
2023-05-14T17:34:08.275Z,7.13
2023-05-14T17:36:32.288Z,8.48
2023-05-14T17:38:55.545Z,7.07
2023-05-14T17:41:20.217Z,7.50
2023-05-14T17:43:43.942Z,5.25
2023-05-14T17:46:07.381Z,5.30
2023-05-14T17:48:30.633Z,5.93
2023-05-14T17:50:53.972Z,4.35
2023-05-14T17:53:17.289Z,10.00
2023-05-14T17:55:43.747Z,5.55
2023-05-14T17:58:08.641Z,8.23
2023-05-14T18:00:32.467Z,4.47
2023-05-14T18:02:55.839Z,8.38
2023-05-14T18:05:20.664Z,7.65
2023-05-14T18:07:44.303Z,6.03
2023-05-14T18:10:09.453Z,8.15
2023-05-14T18:12:32.671Z,4.93
2023-05-14T18:14:57.330Z,6.53
2023-05-14T18:17:20.718Z,4.90
2023-05-14T18:19:44.035Z,6.75
2023-05-14T18:22:07.312Z,8.57
2023-05-14T18:24:31.033Z,5.10
2023-05-14T18:26:54.373Z,5.82
2023-05-14T18:29:17.720Z,4.57
2023-05-14T18:31:42.342Z,5.28
2023-05-14T18:34:05.647Z,9.13
2023-05-14T18:36:28.844Z,7.35
2023-05-14T18:38:52.120Z,5.15
2023-05-14T18:41:15.364Z,6.18
2023-05-14T18:43:38.654Z,5.10
2023-05-14T18:46:01.970Z,6.97
2023-05-14T18:48:26.620Z,3.92
2023-05-14T18:50:49.891Z,6.07
2023-05-14T18:53:13.105Z,5.28
2023-05-14T18:55:36.828Z,5.75
2023-05-14T18:58:00.171Z,8.15
2023-05-14T19:00:23.718Z,6.32
2023-05-14T19:02:47.113Z,5.30
2023-05-14T19:05:12.297Z,4.55
2023-05-14T19:07:35.711Z,6.70
2023-05-14T19:09:59.004Z,6.10
2023-05-14T19:12:22.315Z,5.32
2023-05-14T19:14:45.544Z,5.00
2023-05-14T19:17:09.171Z,4.75
2023-05-14T19:19:32.539Z,7.32
2023-05-14T19:21:57.386Z,5.43
2023-05-14T19:24:20.662Z,8.48
2023-05-14T19:26:44.045Z,6.93
2023-05-14T19:29:07.280Z,5.65
2023-05-14T19:31:30.661Z,5.00
2023-05-14T19:33:54.094Z,6.35
2023-05-14T19:36:17.422Z,5.43
2023-05-14T19:38:42.582Z,7.80
2023-05-14T19:41:05.805Z,5.60
2023-05-14T19:43:29.112Z,4.93
2023-05-14T19:45:52.420Z,4.47
2023-05-14T19:48:15.986Z,4.55
2023-05-14T19:50:39.485Z,4.15
2023-05-14T19:53:03.180Z,4.85
2023-05-14T19:55:27.755Z,5.93
2023-05-14T19:57:51.152Z,4.20
2023-05-14T20:00:15.649Z,6.32
2023-05-14T20:02:40.499Z,6.78
2023-05-14T20:05:03.899Z,5.57
2023-05-14T20:07:27.211Z,9.50
2023-05-14T20:09:50.550Z,9.10
2023-05-14T20:12:16.542Z,10.00
2023-05-14T20:14:41.048Z,11.20
2023-05-14T20:17:04.523Z,11.00
2023-05-14T20:19:27.854Z,13.48
2023-05-14T20:21:51.111Z,12.93
2023-05-14T20:24:14.408Z,8.95
2023-05-14T20:26:37.649Z,13.43
2023-05-14T20:29:02.302Z,9.82
2023-05-14T20:31:25.901Z,14.80
2023-05-14T20:33:49.422Z,10.77
2023-05-14T20:36:12.691Z,11.68
2023-05-14T20:38:36.004Z,13.10
2023-05-14T20:41:01.340Z,11.10
2023-05-14T20:43:25.132Z,10.68
2023-05-14T20:45:49.878Z,8.70
2023-05-14T20:48:16.259Z,10.52
2023-05-14T20:50:39.652Z,11.50
2023-05-14T20:53:03.685Z,8.07
2023-05-14T20:55:27.523Z,9.40
2023-05-14T20:57:51.296Z,9.18
2023-05-14T21:00:18.692Z,10.40
2023-05-14T21:02:43.555Z,9.27
2023-05-14T21:05:08.207Z,10.00
2023-05-14T21:07:31.760Z,10.38
2023-05-14T21:09:55.086Z,14.32
2023-05-14T21:12:18.354Z,11.40
2023-05-14T21:14:42.087Z,12.30
2023-05-14T21:17:05.818Z,13.15
2023-05-14T21:19:30.686Z,9.60
2023-05-14T21:21:54.080Z,11.38
2023-05-14T21:24:17.549Z,7.57
2023-05-14T21:26:41.409Z,9.60
2023-05-14T21:29:05.109Z,9.80
2023-05-14T21:31:28.372Z,9.65
2023-05-14T21:33:51.867Z,13.82
2023-05-14T21:36:16.576Z,12.45
2023-05-14T21:38:39.957Z,10.57
2023-05-14T21:41:03.387Z,11.73
2023-05-14T21:43:26.818Z,10.15
2023-05-14T21:45:50.049Z,10.10
2023-05-14T21:48:13.444Z,11.82
2023-05-14T21:50:37.263Z,13.15
2023-05-14T21:53:02.068Z,11.63
2023-05-14T21:55:26.986Z,10.95
2023-05-14T21:57:51.055Z,10.48
2023-05-14T22:00:18.548Z,13.70
2023-05-14T22:02:41.757Z,11.73
2023-05-14T22:05:05.749Z,13.30
2023-05-14T22:07:29.414Z,14.05
2023-05-14T22:09:58.361Z,13.48
2023-05-14T22:12:21.805Z,15.18
2023-05-14T22:14:45.092Z,14.40
2023-05-14T22:17:13.324Z,16.50
2023-05-14T22:19:36.533Z,15.68
2023-05-14T22:21:59.799Z,14.20
2023-05-14T22:24:23.210Z,14.90
2023-05-14T22:26:47.976Z,15.98
2023-05-14T22:29:11.360Z,16.05
2023-05-14T22:31:34.747Z,15.45
2023-05-14T22:33:58.059Z,20.83
2023-05-14T22:36:21.339Z,17.73
2023-05-14T22:38:44.957Z,15.18
2023-05-14T22:41:08.292Z,16.80
2023-05-14T22:43:33.304Z,23.00
2023-05-14T22:45:56.563Z,18.40
2023-05-14T22:48:19.880Z,18.85
2023-05-14T22:50:43.347Z,19.40
2023-05-14T22:53:06.717Z,27.63
2023-05-14T22:55:30.118Z,20.88
2023-05-14T22:57:53.407Z,20.45
2023-05-14T23:00:18.731Z,23.38
2023-05-14T23:02:42.177Z,26.75
2023-05-14T23:05:06.382Z,20.83
2023-05-14T23:07:29.755Z,24.20
2023-05-14T23:09:53.060Z,21.73
2023-05-14T23:12:16.283Z,27.05
2023-05-14T23:14:39.542Z,25.40
2023-05-14T23:17:04.319Z,24.92
2023-05-14T23:19:27.598Z,26.15
2023-05-14T23:21:50.895Z,23.67
2023-05-14T23:24:14.333Z,28.67
2023-05-14T23:26:37.952Z,27.50
2023-05-14T23:29:01.250Z,28.08
2023-05-14T23:31:24.599Z,35.63
2023-05-14T23:33:49.383Z,30.85
2023-05-14T23:36:12.689Z,31.88
2023-05-14T23:38:36.169Z,29.23
2023-05-14T23:40:59.451Z,35.53
2023-05-14T23:43:23.673Z,31.23
2023-05-14T23:45:47.070Z,30.67
2023-05-14T23:48:10.604Z,28.33
2023-05-14T23:50:35.230Z,31.27
2023-05-14T23:52:58.477Z,31.27
2023-05-14T23:55:22.357Z,32.20
2023-05-14T23:57:45.859Z,34.22
